TimeEST,TemperatureF,Dew PointF,Humidity,Sea Level PressureIn,VisibilityMPH,Wind Direction,Wind SpeedMPH,Gust SpeedMPH,PrecipitationIn,Events,Conditions,WindDirDegrees,DateUTC
12:15 AM,28.4,24.8,86,30.28,10.0,ESE,15.0,20.7,N/A,,Clear,120,2012-11-15 05:15:00
12:35 AM,28.4,24.8,86,30.28,10.0,SE,17.3,21.9,N/A,,Clear,130,2012-11-15 05:35:00
12:55 AM,28.4,24.8,86,30.28,10.0,SE,16.1,21.9,N/A,,Clear,140,2012-11-15 05:55:00
1:15 AM,28.4,24.8,86,30.27,10.0,SE,16.1,23.0,N/A,,Clear,140,2012-11-15 06:15:00
1:40 AM,28.4,24.8,86,30.27,10.0,SE,17.3,21.9,N/A,,Clear,130,2012-11-15 06:40:00
2:00 AM,28.4,24.8,86,30.27,10.0,SE,15.0,19.6,N/A,,Clear,130,2012-11-15 07:00:00
2:20 AM,28.4,24.8,86,30.26,10.0,SE,16.1,21.9,N/A,,Clear,130,2012-11-15 07:20:00
2:40 AM,28.4,24.8,86,30.26,10.0,SE,19.6,24.2,N/A,,Clear,130,2012-11-15 07:40:00
3:05 AM,28.4,24.8,86,30.26,10.0,SE,16.1,23.0,N/A,,Clear,140,2012-11-15 08:05:00
3:45 AM,28.4,24.8,86,30.26,10.0,SE,15.0,-,N/A,,Clear,140,2012-11-15 08:45:00
4:05 AM,28.4,24.8,86,30.26,10.0,SE,12.7,-,N/A,,Clear,140,2012-11-15 09:05:00
4:50 AM,28.4,24.8,86,30.26,10.0,SE,11.5,-,N/A,,Clear,130,2012-11-15 09:50:00
5:55 AM,26.6,24.8,93,30.25,10.0,SE,11.5,-,N/A,,Clear,130,2012-11-15 10:55:00
6:15 AM,26.6,24.8,93,30.25,10.0,SE,11.5,-,N/A,,Clear,130,2012-11-15 11:15:00
6:35 AM,26.6,24.8,93,30.25,10.0,SE,11.5,-,N/A,,Clear,140,2012-11-15 11:35:00
6:55 AM,26.6,24.8,93,30.26,10.0,SE,10.4,-,N/A,,Clear,140,2012-11-15 11:55:00
7:20 AM,26.6,24.8,93,30.26,10.0,SE,11.5,-,N/A,,Clear,140,2012-11-15 12:20:00
7:40 AM,26.6,24.8,93,30.26,10.0,SE,12.7,-,N/A,,Clear,140,2012-11-15 12:40:00
8:00 AM,26.6,24.8,93,30.27,10.0,SE,12.7,-,N/A,,Clear,140,2012-11-15 13:00:00
8:20 AM,28.4,26.6,93,30.26,10.0,SE,13.8,-,N/A,,Clear,140,2012-11-15 13:20:00
8:45 AM,28.4,26.6,93,30.26,10.0,SE,11.5,-,N/A,,Clear,140,2012-11-15 13:45:00
9:05 AM,30.2,26.6,86,30.26,10.0,SE,12.7,-,N/A,,Clear,140,2012-11-15 14:05:00
10:10 AM,32.0,26.6,80,30.27,10.0,SE,11.5,-,N/A,,Clear,140,2012-11-15 15:10:00
10:30 AM,32.0,26.6,80,30.28,10.0,SE,9.2,-,N/A,,Clear,130,2012-11-15 15:30:00
10:50 AM,33.8,26.6,75,30.27,10.0,SE,9.2,16.1,N/A,,Clear,140,2012-11-15 15:50:00
11:10 AM,33.8,26.6,75,30.26,10.0,SE,5.8,-,N/A,,Clear,140,2012-11-15 16:10:00
11:35 AM,35.6,28.4,75,30.26,10.0,SE,8.1,-,N/A,,Clear,140,2012-11-15 16:35:00
11:55 AM,35.6,26.6,70,30.25,10.0,SSE,5.8,-,N/A,,Clear,160,2012-11-15 16:55:00
12:15 PM,35.6,26.6,70,30.25,10.0,SW,3.5,-,N/A,,Clear,220,2012-11-15 17:15:00
12:35 PM,37.4,24.8,60,30.25,10.0,WSW,3.5,-,N/A,,Clear,250,2012-11-15 17:35:00
1:00 PM,39.2,26.6,61,30.24,10.0,Calm,Calm,-,N/A,,Clear,0,2012-11-15 18:00:00
1:20 PM,41.0,24.8,53,30.24,10.0,West,3.5,-,N/A,,Clear,260,2012-11-15 18:20:00
2:00 PM,41.0,24.8,53,30.23,10.0,West,3.5,-,N/A,,Clear,280,2012-11-15 19:00:00
2:25 PM,41.0,24.8,53,30.23,10.0,NNW,3.5,-,N/A,,Clear,330,2012-11-15 19:25:00
2:45 PM,41.0,23.0,49,30.23,10.0,Calm,Calm,-,N/A,,Clear,0,2012-11-15 19:45:00
3:05 PM,42.8,23.0,46,30.23,10.0,Calm,Calm,-,N/A,,Clear,0,2012-11-15 20:05:00
3:25 PM,42.8,23.0,46,30.23,10.0,Calm,Calm,-,N/A,,Clear,0,2012-11-15 20:25:00
3:50 PM,41.0,23.0,49,30.23,10.0,NNW,3.5,-,N/A,,Clear,330,2012-11-15 20:50:00
4:10 PM,41.0,24.8,53,30.22,10.0,NNW,3.5,-,N/A,,Clear,340,2012-11-15 21:10:00
4:30 PM,39.2,24.8,56,30.23,10.0,Calm,Calm,-,N/A,,Clear,0,2012-11-15 21:30:00
4:50 PM,39.2,24.8,56,30.23,10.0,Calm,Calm,-,N/A,,Clear,0,2012-11-15 21:50:00
5:15 PM,37.4,24.8,60,30.23,10.0,Calm,Calm,-,N/A,,Clear,0,2012-11-15 22:15:00
5:35 PM,37.4,26.6,65,30.23,10.0,Calm,Calm,-,N/A,,Clear,0,2012-11-15 22:35:00
5:55 PM,37.4,26.6,65,30.23,10.0,Calm,Calm,-,N/A,,Clear,0,2012-11-15 22:55:00
6:15 PM,35.6,26.6,70,30.23,10.0,Calm,Calm,-,N/A,,Clear,0,2012-11-15 23:15:00
6:40 PM,35.6,26.6,70,30.23,10.0,Calm,Calm,-,N/A,,Clear,0,2012-11-15 23:40:00
7:00 PM,35.6,24.8,65,30.23,10.0,Calm,Calm,-,N/A,,Clear,0,2012-11-16 00:00:00
7:20 PM,35.6,24.8,65,30.24,10.0,Calm,Calm,-,N/A,,Clear,0,2012-11-16 00:20:00
7:40 PM,35.6,26.6,70,30.24,10.0,Calm,Calm,-,N/A,,Clear,0,2012-11-16 00:40:00
8:05 PM,35.6,26.6,70,30.24,10.0,Calm,Calm,-,N/A,,Clear,0,2012-11-16 01:05:00
8:45 PM,32.0,26.6,80,30.24,10.0,SE,3.5,-,N/A,,Clear,130,2012-11-16 01:45:00
9:05 PM,32.0,26.6,80,30.23,10.0,Calm,Calm,-,N/A,,Clear,0,2012-11-16 02:05:00
9:30 PM,33.8,26.6,75,30.23,10.0,Calm,Calm,-,N/A,,Clear,0,2012-11-16 02:30:00
9:50 PM,33.8,26.6,75,30.24,10.0,Calm,Calm,-,N/A,,Clear,0,2012-11-16 02:50:00
10:10 PM,33.8,26.6,75,30.24,10.0,Calm,Calm,-,N/A,,Clear,0,2012-11-16 03:10:00
10:55 PM,32.0,24.8,75,30.23,10.0,NNW,3.5,-,N/A,,Clear,330,2012-11-16 03:55:00
11:15 PM,32.0,24.8,75,30.23,10.0,Calm,Calm,-,N/A,,Clear,0,2012-11-16 04:15:00
11:35 PM,33.8,24.8,70,30.24,10.0,Calm,Calm,-,N/A,,Clear,0,2012-11-16 04:35:00
11:55 PM,32.0,24.8,75,30.24,10.0,Calm,Calm,-,N/A,,Clear,0,2012-11-16 04:55:00